sensor_id;sensor_type;location;lat;lon;timestamp;P1;durP1;ratioP1;P2;durP2;ratioP2
71769;SDS011;66386;52.122;5.420;2023-04-03T00:00:35;2.67;;;0.45;;
71769;SDS011;66386;52.122;5.420;2023-04-03T00:03:01;1.35;;;0.22;;
71769;SDS011;66386;52.122;5.420;2023-04-03T00:05:28;1.23;;;0.43;;
71769;SDS011;66386;52.122;5.420;2023-04-03T00:07:55;0.90;;;0.40;;
71769;SDS011;66386;52.122;5.420;2023-04-03T00:10:21;1.20;;;0.28;;
71769;SDS011;66386;52.122;5.420;2023-04-03T00:12:51;1.75;;;0.30;;
71769;SDS011;66386;52.122;5.420;2023-04-03T00:15:17;0.88;;;0.30;;
71769;SDS011;66386;52.122;5.420;2023-04-03T00:17:44;1.75;;;0.60;;
71769;SDS011;66386;52.122;5.420;2023-04-03T00:20:10;2.00;;;0.40;;
71769;SDS011;66386;52.122;5.420;2023-04-03T00:22:37;1.85;;;0.30;;
71769;SDS011;66386;52.122;5.420;2023-04-03T00:25:03;2.13;;;0.45;;
71769;SDS011;66386;52.122;5.420;2023-04-03T00:27:30;1.70;;;0.40;;
71769;SDS011;66386;52.122;5.420;2023-04-03T00:29:57;2.33;;;0.30;;
71769;SDS011;66386;52.122;5.420;2023-04-03T00:32:23;2.33;;;0.50;;
71769;SDS011;66386;52.122;5.420;2023-04-03T00:34:50;1.83;;;0.20;;
71769;SDS011;66386;52.122;5.420;2023-04-03T00:37:16;1.73;;;0.30;;
71769;SDS011;66386;52.122;5.420;2023-04-03T00:39:43;1.25;;;0.30;;
71769;SDS011;66386;52.122;5.420;2023-04-03T00:42:09;1.73;;;0.40;;
71769;SDS011;66386;52.122;5.420;2023-04-03T00:47:03;2.45;;;0.35;;
71769;SDS011;66386;52.122;5.420;2023-04-03T00:49:33;2.60;;;0.50;;
71769;SDS011;66386;52.122;5.420;2023-04-03T00:51:59;2.25;;;0.28;;
71769;SDS011;66386;52.122;5.420;2023-04-03T00:54:26;2.58;;;0.50;;
71769;SDS011;66386;52.122;5.420;2023-04-03T00:56:53;2.40;;;0.43;;
71769;SDS011;66386;52.122;5.420;2023-04-03T00:59:27;1.02;;;0.40;;
71769;SDS011;66386;52.122;5.420;2023-04-03T01:02:00;2.42;;;0.50;;
71769;SDS011;66386;52.122;5.420;2023-04-03T01:04:36;1.08;;;0.32;;
71769;SDS011;66386;52.122;5.420;2023-04-03T01:07:06;3.38;;;0.90;;
71769;SDS011;66386;52.122;5.420;2023-04-03T01:09:36;1.20;;;0.40;;
71769;SDS011;66386;52.122;5.420;2023-04-03T01:14:54;1.27;;;0.30;;
71769;SDS011;66386;52.122;5.420;2023-04-03T01:17:25;2.00;;;0.40;;
71769;SDS011;66386;52.122;5.420;2023-04-03T01:25:18;1.58;;;0.43;;
71769;SDS011;66386;52.122;5.420;2023-04-03T01:27:45;1.33;;;0.60;;
71769;SDS011;66386;52.122;5.420;2023-04-03T01:30:11;1.75;;;0.45;;
71769;SDS011;66386;52.122;5.420;2023-04-03T01:32:42;1.35;;;0.30;;
71769;SDS011;66386;52.122;5.420;2023-04-03T01:35:09;1.53;;;1.00;;
71769;SDS011;66386;52.122;5.420;2023-04-03T01:37:36;1.75;;;0.55;;
71769;SDS011;66386;52.122;5.420;2023-04-03T01:40:03;1.85;;;0.60;;
71769;SDS011;66386;52.122;5.420;2023-04-03T01:42:30;0.90;;;0.40;;
71769;SDS011;66386;52.122;5.420;2023-04-03T01:44:56;1.90;;;0.60;;
71769;SDS011;66386;52.122;5.420;2023-04-03T01:47:23;1.87;;;0.70;;
71769;SDS011;66386;52.122;5.420;2023-04-03T01:49:49;1.35;;;0.60;;
71769;SDS011;66386;52.122;5.420;2023-04-03T01:52:16;2.70;;;0.38;;
71769;SDS011;66386;52.122;5.420;2023-04-03T01:54:42;3.50;;;0.50;;
71769;SDS011;66386;52.122;5.420;2023-04-03T01:57:09;4.18;;;0.50;;
71769;SDS011;66386;52.122;5.420;2023-04-03T01:59:36;3.37;;;0.40;;
71769;SDS011;66386;52.122;5.420;2023-04-03T02:02:02;1.70;;;0.50;;
71769;SDS011;66386;52.122;5.420;2023-04-03T02:04:29;3.88;;;0.77;;
71769;SDS011;66386;52.122;5.420;2023-04-03T02:06:56;2.45;;;0.50;;
71769;SDS011;66386;52.122;5.420;2023-04-03T02:09:22;4.47;;;0.60;;
71769;SDS011;66386;52.122;5.420;2023-04-03T02:11:49;2.30;;;0.53;;
71769;SDS011;66386;52.122;5.420;2023-04-03T02:14:15;1.15;;;0.43;;
71769;SDS011;66386;52.122;5.420;2023-04-03T02:16:42;3.65;;;0.88;;
71769;SDS011;66386;52.122;5.420;2023-04-03T02:19:09;2.65;;;0.60;;
71769;SDS011;66386;52.122;5.420;2023-04-03T02:21:35;0.88;;;0.40;;
71769;SDS011;66386;52.122;5.420;2023-04-03T02:24:02;2.20;;;0.43;;
71769;SDS011;66386;52.122;5.420;2023-04-03T02:26:28;1.00;;;0.30;;
71769;SDS011;66386;52.122;5.420;2023-04-03T02:28:55;1.63;;;0.60;;
71769;SDS011;66386;52.122;5.420;2023-04-03T02:31:21;1.73;;;0.70;;
71769;SDS011;66386;52.122;5.420;2023-04-03T02:33:48;2.85;;;0.50;;
71769;SDS011;66386;52.122;5.420;2023-04-03T02:36:14;1.30;;;0.50;;
71769;SDS011;66386;52.122;5.420;2023-04-03T02:38:41;1.80;;;0.47;;
71769;SDS011;66386;52.122;5.420;2023-04-03T02:41:09;2.35;;;0.40;;
71769;SDS011;66386;52.122;5.420;2023-04-03T02:43:37;2.20;;;0.52;;
71769;SDS011;66386;52.122;5.420;2023-04-03T02:46:04;2.03;;;0.60;;
71769;SDS011;66386;52.122;5.420;2023-04-03T02:48:31;2.20;;;0.80;;
71769;SDS011;66386;52.122;5.420;2023-04-03T02:50:58;3.28;;;0.70;;
71769;SDS011;66386;52.122;5.420;2023-04-03T02:53:24;2.15;;;0.52;;
71769;SDS011;66386;52.122;5.420;2023-04-03T02:55:51;2.63;;;0.65;;
71769;SDS011;66386;52.122;5.420;2023-04-03T02:58:17;1.17;;;0.50;;
71769;SDS011;66386;52.122;5.420;2023-04-03T03:00:43;2.37;;;0.67;;
71769;SDS011;66386;52.122;5.420;2023-04-03T03:03:10;1.45;;;0.40;;
71769;SDS011;66386;52.122;5.420;2023-04-03T03:05:36;4.70;;;0.95;;
71769;SDS011;66386;52.122;5.420;2023-04-03T03:08:03;2.50;;;0.63;;
71769;SDS011;66386;52.122;5.420;2023-04-03T03:10:29;3.05;;;0.68;;
71769;SDS011;66386;52.122;5.420;2023-04-03T03:12:56;2.33;;;0.67;;
71769;SDS011;66386;52.122;5.420;2023-04-03T03:15:22;1.25;;;0.40;;
71769;SDS011;66386;52.122;5.420;2023-04-03T03:17:49;2.30;;;0.68;;
71769;SDS011;66386;52.122;5.420;2023-04-03T03:20:15;6.10;;;0.80;;
71769;SDS011;66386;52.122;5.420;2023-04-03T03:22:42;2.05;;;0.65;;
71769;SDS011;66386;52.122;5.420;2023-04-03T03:25:08;2.10;;;0.70;;
71769;SDS011;66386;52.122;5.420;2023-04-03T03:27:35;1.90;;;0.70;;
71769;SDS011;66386;52.122;5.420;2023-04-03T03:30:02;2.80;;;0.80;;
71769;SDS011;66386;52.122;5.420;2023-04-03T03:32:28;1.23;;;0.50;;
71769;SDS011;66386;52.122;5.420;2023-04-03T03:34:55;2.17;;;0.77;;
71769;SDS011;66386;52.122;5.420;2023-04-03T03:37:22;2.67;;;0.80;;
71769;SDS011;66386;52.122;5.420;2023-04-03T03:39:48;4.80;;;1.08;;
71769;SDS011;66386;52.122;5.420;2023-04-03T03:42:14;2.88;;;0.70;;
71769;SDS011;66386;52.122;5.420;2023-04-03T03:44:41;2.78;;;0.68;;
71769;SDS011;66386;52.122;5.420;2023-04-03T03:47:08;2.30;;;0.80;;
71769;SDS011;66386;52.122;5.420;2023-04-03T03:49:36;3.27;;;0.80;;
71769;SDS011;66386;52.122;5.420;2023-04-03T03:52:03;1.52;;;0.70;;
71769;SDS011;66386;52.122;5.420;2023-04-03T03:54:29;1.30;;;0.50;;
71769;SDS011;66386;52.122;5.420;2023-04-03T03:56:56;1.20;;;0.60;;
71769;SDS011;66386;52.122;5.420;2023-04-03T03:59:22;3.45;;;0.60;;
71769;SDS011;66386;52.122;5.420;2023-04-03T04:01:49;1.50;;;0.80;;
71769;SDS011;66386;52.122;5.420;2023-04-03T04:04:15;1.67;;;0.80;;
71769;SDS011;66386;52.122;5.420;2023-04-03T04:06:42;3.53;;;0.82;;
71769;SDS011;66386;52.122;5.420;2023-04-03T04:09:09;3.65;;;0.90;;
71769;SDS011;66386;52.122;5.420;2023-04-03T04:11:35;3.22;;;0.50;;
71769;SDS011;66386;52.122;5.420;2023-04-03T04:14:02;2.63;;;0.67;;
71769;SDS011;66386;52.122;5.420;2023-04-03T04:16:28;2.90;;;0.68;;
71769;SDS011;66386;52.122;5.420;2023-04-03T04:18:55;2.85;;;1.00;;
71769;SDS011;66386;52.122;5.420;2023-04-03T04:21:21;4.63;;;1.10;;
71769;SDS011;66386;52.122;5.420;2023-04-03T04:23:48;3.08;;;0.70;;
71769;SDS011;66386;52.122;5.420;2023-04-03T04:26:14;1.27;;;0.67;;
71769;SDS011;66386;52.122;5.420;2023-04-03T04:28:41;1.13;;;0.57;;
71769;SDS011;66386;52.122;5.420;2023-04-03T04:31:07;4.50;;;0.90;;
71769;SDS011;66386;52.122;5.420;2023-04-03T04:33:34;2.47;;;0.85;;
71769;SDS011;66386;52.122;5.420;2023-04-03T04:36:00;2.53;;;0.80;;
71769;SDS011;66386;52.122;5.420;2023-04-03T04:38:27;3.13;;;0.70;;
71769;SDS011;66386;52.122;5.420;2023-04-03T04:40:53;1.30;;;0.60;;
71769;SDS011;66386;52.122;5.420;2023-04-03T04:43:20;1.80;;;0.70;;
71769;SDS011;66386;52.122;5.420;2023-04-03T04:45:46;2.42;;;0.95;;
71769;SDS011;66386;52.122;5.420;2023-04-03T04:48:13;2.35;;;0.70;;
71769;SDS011;66386;52.122;5.420;2023-04-03T04:50:39;3.07;;;1.10;;
71769;SDS011;66386;52.122;5.420;2023-04-03T04:53:06;1.77;;;0.82;;
71769;SDS011;66386;52.122;5.420;2023-04-03T04:55:32;2.85;;;0.60;;
71769;SDS011;66386;52.122;5.420;2023-04-03T04:57:59;2.47;;;0.70;;
71769;SDS011;66386;52.122;5.420;2023-04-03T05:00:25;4.00;;;0.90;;
71769;SDS011;66386;52.122;5.420;2023-04-03T05:02:52;1.90;;;1.07;;
71769;SDS011;66386;52.122;5.420;2023-04-03T05:05:18;2.80;;;0.90;;
71769;SDS011;66386;52.122;5.420;2023-04-03T05:07:45;3.90;;;0.90;;
71769;SDS011;66386;52.122;5.420;2023-04-03T05:10:11;3.15;;;0.95;;
71769;SDS011;66386;52.122;5.420;2023-04-03T05:12:38;4.70;;;0.88;;
71769;SDS011;66386;52.122;5.420;2023-04-03T05:15:04;1.50;;;0.80;;
71769;SDS011;66386;52.122;5.420;2023-04-03T05:17:31;4.25;;;0.80;;
71769;SDS011;66386;52.122;5.420;2023-04-03T05:19:58;3.88;;;0.80;;
71769;SDS011;66386;52.122;5.420;2023-04-03T05:22:24;4.57;;;0.88;;
71769;SDS011;66386;52.122;5.420;2023-04-03T05:24:51;4.15;;;0.93;;
71769;SDS011;66386;52.122;5.420;2023-04-03T05:27:17;4.23;;;0.90;;
71769;SDS011;66386;52.122;5.420;2023-04-03T05:29:44;1.35;;;0.77;;
71769;SDS011;66386;52.122;5.420;2023-04-03T05:32:10;2.95;;;1.10;;
71769;SDS011;66386;52.122;5.420;2023-04-03T05:34:37;2.63;;;0.80;;
71769;SDS011;66386;52.122;5.420;2023-04-03T05:37:04;3.45;;;1.15;;
71769;SDS011;66386;52.122;5.420;2023-04-03T05:39:31;3.37;;;1.17;;
71769;SDS011;66386;52.122;5.420;2023-04-03T05:41:57;3.47;;;0.75;;
71769;SDS011;66386;52.122;5.420;2023-04-03T05:44:24;4.00;;;0.90;;
71769;SDS011;66386;52.122;5.420;2023-04-03T05:46:50;2.80;;;0.82;;
71769;SDS011;66386;52.122;5.420;2023-04-03T05:49:17;2.17;;;0.70;;
71769;SDS011;66386;52.122;5.420;2023-04-03T05:51:44;5.07;;;1.00;;
71769;SDS011;66386;52.122;5.420;2023-04-03T05:56:51;1.48;;;0.70;;
71769;SDS011;66386;52.122;5.420;2023-04-03T05:59:19;1.27;;;0.70;;
71769;SDS011;66386;52.122;5.420;2023-04-03T06:01:46;2.97;;;1.00;;
71769;SDS011;66386;52.122;5.420;2023-04-03T06:04:13;3.13;;;0.60;;
71769;SDS011;66386;52.122;5.420;2023-04-03T06:09:14;2.40;;;1.15;;
71769;SDS011;66386;52.122;5.420;2023-04-03T06:11:42;3.22;;;0.70;;
71769;SDS011;66386;52.122;5.420;2023-04-03T06:14:09;6.07;;;0.85;;
71769;SDS011;66386;52.122;5.420;2023-04-03T06:16:36;2.17;;;0.80;;
71769;SDS011;66386;52.122;5.420;2023-04-03T06:19:05;2.97;;;0.80;;
71769;SDS011;66386;52.122;5.420;2023-04-03T06:21:33;1.38;;;0.65;;
71769;SDS011;66386;52.122;5.420;2023-04-03T06:24:04;2.70;;;0.98;;
71769;SDS011;66386;52.122;5.420;2023-04-03T06:26:32;4.78;;;0.85;;
71769;SDS011;66386;52.122;5.420;2023-04-03T06:28:59;7.07;;;0.90;;
71769;SDS011;66386;52.122;5.420;2023-04-03T06:31:26;1.73;;;0.80;;
71769;SDS011;66386;52.122;5.420;2023-04-03T06:33:53;2.65;;;0.68;;
71769;SDS011;66386;52.122;5.420;2023-04-03T06:36:20;2.10;;;0.70;;
71769;SDS011;66386;52.122;5.420;2023-04-03T06:38:47;4.78;;;0.90;;
71769;SDS011;66386;52.122;5.420;2023-04-03T06:41:14;4.57;;;1.47;;
71769;SDS011;66386;52.122;5.420;2023-04-03T06:43:43;6.80;;;0.80;;
71769;SDS011;66386;52.122;5.420;2023-04-03T06:46:16;5.32;;;1.10;;
71769;SDS011;66386;52.122;5.420;2023-04-03T06:48:44;3.05;;;1.63;;
71769;SDS011;66386;52.122;5.420;2023-04-03T06:51:18;5.13;;;0.80;;
71769;SDS011;66386;52.122;5.420;2023-04-03T06:53:53;2.13;;;0.63;;
71769;SDS011;66386;52.122;5.420;2023-04-03T06:56:21;3.58;;;0.85;;
71769;SDS011;66386;52.122;5.420;2023-04-03T06:58:49;6.07;;;1.05;;
71769;SDS011;66386;52.122;5.420;2023-04-03T07:01:17;2.67;;;0.80;;
71769;SDS011;66386;52.122;5.420;2023-04-03T07:03:46;4.20;;;1.00;;
71769;SDS011;66386;52.122;5.420;2023-04-03T07:06:14;3.80;;;0.60;;
71769;SDS011;66386;52.122;5.420;2023-04-03T07:08:42;5.03;;;0.73;;
71769;SDS011;66386;52.122;5.420;2023-04-03T07:11:09;3.83;;;0.90;;
71769;SDS011;66386;52.122;5.420;2023-04-03T07:13:36;5.40;;;0.90;;
71769;SDS011;66386;52.122;5.420;2023-04-03T07:16:03;4.80;;;0.95;;
71769;SDS011;66386;52.122;5.420;2023-04-03T07:18:32;3.10;;;0.60;;
71769;SDS011;66386;52.122;5.420;2023-04-03T07:20:59;3.30;;;0.82;;
71769;SDS011;66386;52.122;5.420;2023-04-03T07:23:27;3.05;;;0.70;;
71769;SDS011;66386;52.122;5.420;2023-04-03T07:25:53;3.60;;;0.68;;
71769;SDS011;66386;52.122;5.420;2023-04-03T07:28:20;3.35;;;1.10;;
71769;SDS011;66386;52.122;5.420;2023-04-03T07:30:49;1.90;;;1.00;;
71769;SDS011;66386;52.122;5.420;2023-04-03T07:33:18;2.72;;;0.65;;
71769;SDS011;66386;52.122;5.420;2023-04-03T07:35:46;5.15;;;0.70;;
71769;SDS011;66386;52.122;5.420;2023-04-03T07:38:13;3.05;;;0.90;;
71769;SDS011;66386;52.122;5.420;2023-04-03T07:40:40;3.35;;;0.70;;
71769;SDS011;66386;52.122;5.420;2023-04-03T07:43:12;2.67;;;0.60;;
71769;SDS011;66386;52.122;5.420;2023-04-03T07:45:39;1.83;;;0.95;;
71769;SDS011;66386;52.122;5.420;2023-04-03T07:48:06;3.70;;;1.02;;
71769;SDS011;66386;52.122;5.420;2023-04-03T07:50:33;4.88;;;0.85;;
71769;SDS011;66386;52.122;5.420;2023-04-03T07:52:59;2.08;;;0.70;;
71769;SDS011;66386;52.122;5.420;2023-04-03T07:55:26;2.60;;;0.53;;
71769;SDS011;66386;52.122;5.420;2023-04-03T07:57:53;4.55;;;0.80;;
71769;SDS011;66386;52.122;5.420;2023-04-03T08:00:19;4.03;;;0.57;;
71769;SDS011;66386;52.122;5.420;2023-04-03T08:02:46;3.65;;;0.80;;
71769;SDS011;66386;52.122;5.420;2023-04-03T08:05:20;4.75;;;0.75;;
71769;SDS011;66386;52.122;5.420;2023-04-03T08:07:47;2.93;;;0.90;;
71769;SDS011;66386;52.122;5.420;2023-04-03T08:10:14;3.17;;;0.45;;
71769;SDS011;66386;52.122;5.420;2023-04-03T08:12:41;3.90;;;0.75;;
71769;SDS011;66386;52.122;5.420;2023-04-03T08:15:08;2.70;;;0.70;;
71769;SDS011;66386;52.122;5.420;2023-04-03T08:17:35;3.03;;;0.70;;
71769;SDS011;66386;52.122;5.420;2023-04-03T08:20:02;3.63;;;0.60;;
71769;SDS011;66386;52.122;5.420;2023-04-03T08:22:31;2.05;;;0.57;;
71769;SDS011;66386;52.122;5.420;2023-04-03T08:24:57;2.47;;;0.65;;
71769;SDS011;66386;52.122;5.420;2023-04-03T08:27:25;2.08;;;0.40;;
71769;SDS011;66386;52.122;5.420;2023-04-03T08:29:53;2.20;;;0.60;;
71769;SDS011;66386;52.122;5.420;2023-04-03T08:32:19;4.37;;;0.60;;
71769;SDS011;66386;52.122;5.420;2023-04-03T08:34:46;2.65;;;0.50;;
71769;SDS011;66386;52.122;5.420;2023-04-03T08:37:12;1.95;;;0.82;;
71769;SDS011;66386;52.122;5.420;2023-04-03T08:39:39;1.80;;;0.30;;
71769;SDS011;66386;52.122;5.420;2023-04-03T08:42:12;1.23;;;0.40;;
71769;SDS011;66386;52.122;5.420;2023-04-03T08:47:28;1.48;;;0.30;;
71769;SDS011;66386;52.122;5.420;2023-04-03T08:50:05;2.05;;;0.40;;
71769;SDS011;66386;52.122;5.420;2023-04-03T08:52:42;1.55;;;0.50;;
71769;SDS011;66386;52.122;5.420;2023-04-03T08:55:24;2.63;;;0.38;;
71769;SDS011;66386;52.122;5.420;2023-04-03T09:00:47;2.13;;;0.32;;
71769;SDS011;66386;52.122;5.420;2023-04-03T09:03:20;1.17;;;0.30;;
71769;SDS011;66386;52.122;5.420;2023-04-03T09:05:53;1.77;;;0.30;;
71769;SDS011;66386;52.122;5.420;2023-04-03T09:11:19;1.37;;;0.20;;
71769;SDS011;66386;52.122;5.420;2023-04-03T09:16:28;1.02;;;0.20;;
71769;SDS011;66386;52.122;5.420;2023-04-03T09:19:40;1.65;;;0.20;;
71769;SDS011;66386;52.122;5.420;2023-04-03T09:22:09;1.55;;;0.30;;
71769;SDS011;66386;52.122;5.420;2023-04-03T09:24:47;0.93;;;0.20;;
71769;SDS011;66386;52.122;5.420;2023-04-03T09:27:22;0.40;;;0.20;;
71769;SDS011;66386;52.122;5.420;2023-04-03T09:29:48;1.13;;;0.28;;
71769;SDS011;66386;52.122;5.420;2023-04-03T09:32:21;0.50;;;0.10;;
71769;SDS011;66386;52.122;5.420;2023-04-03T09:34:47;1.58;;;0.10;;
71769;SDS011;66386;52.122;5.420;2023-04-03T09:37:35;0.73;;;0.20;;
71769;SDS011;66386;52.122;5.420;2023-04-03T09:40:12;2.53;;;0.38;;
71769;SDS011;66386;52.122;5.420;2023-04-03T09:42:53;0.63;;;0.10;;
71769;SDS011;66386;52.122;5.420;2023-04-03T09:45:44;0.63;;;0.20;;
71769;SDS011;66386;52.122;5.420;2023-04-03T09:56:04;0.95;;;0.30;;
71769;SDS011;66386;52.122;5.420;2023-04-03T09:58:45;0.20;;;0.10;;
71769;SDS011;66386;52.122;5.420;2023-04-03T10:01:21;0.30;;;0.10;;
71769;SDS011;66386;52.122;5.420;2023-04-03T10:06:44;0.95;;;0.20;;
71769;SDS011;66386;52.122;5.420;2023-04-03T10:12:00;0.17;;;0.10;;
71769;SDS011;66386;52.122;5.420;2023-04-03T10:14:32;0.70;;;0.13;;
71769;SDS011;66386;52.122;5.420;2023-04-03T10:19:56;0.90;;;0.10;;
71769;SDS011;66386;52.122;5.420;2023-04-03T10:22:37;0.75;;;0.17;;
71769;SDS011;66386;52.122;5.420;2023-04-03T10:25:18;0.82;;;0.10;;
71769;SDS011;66386;52.122;5.420;2023-04-03T10:27:59;1.10;;;0.20;;
71769;SDS011;66386;52.122;5.420;2023-04-03T10:30:46;1.20;;;0.13;;
71769;SDS011;66386;52.122;5.420;2023-04-03T10:33:26;1.63;;;0.30;;
71769;SDS011;66386;52.122;5.420;2023-04-03T10:36:06;0.22;;;0.10;;
71769;SDS011;66386;52.122;5.420;2023-04-03T10:52:57;0.75;;;0.10;;
71769;SDS011;66386;52.122;5.420;2023-04-03T10:55:43;0.32;;;0.10;;
71769;SDS011;66386;52.122;5.420;2023-04-03T10:58:31;1.40;;;0.20;;
71769;SDS011;66386;52.122;5.420;2023-04-03T11:01:02;0.52;;;0.10;;
71769;SDS011;66386;52.122;5.420;2023-04-03T11:03:35;2.22;;;0.20;;
71769;SDS011;66386;52.122;5.420;2023-04-03T11:06:08;0.60;;;0.17;;
71769;SDS011;66386;52.122;5.420;2023-04-03T11:08:43;2.05;;;0.20;;
71769;SDS011;66386;52.122;5.420;2023-04-03T11:11:30;0.43;;;0.10;;
71769;SDS011;66386;52.122;5.420;2023-04-03T11:14:10;0.55;;;0.20;;
71769;SDS011;66386;52.122;5.420;2023-04-03T11:16:46;2.47;;;0.10;;
71769;SDS011;66386;52.122;5.420;2023-04-03T11:19:20;1.00;;;0.17;;
71769;SDS011;66386;52.122;5.420;2023-04-03T11:24:27;0.57;;;0.20;;
71769;SDS011;66386;52.122;5.420;2023-04-03T11:26:55;1.20;;;0.10;;
71769;SDS011;66386;52.122;5.420;2023-04-03T11:29:26;1.15;;;0.50;;
71769;SDS011;66386;52.122;5.420;2023-04-03T11:34:44;0.52;;;0.10;;
71769;SDS011;66386;52.122;5.420;2023-04-03T11:37:27;1.33;;;0.10;;
71769;SDS011;66386;52.122;5.420;2023-04-03T11:40:06;0.77;;;0.20;;
71769;SDS011;66386;52.122;5.420;2023-04-03T11:42:46;0.88;;;0.10;;
71769;SDS011;66386;52.122;5.420;2023-04-03T11:47:50;0.75;;;0.20;;
71769;SDS011;66386;52.122;5.420;2023-04-03T12:05:49;1.92;;;0.20;;
71769;SDS011;66386;52.122;5.420;2023-04-03T12:16:28;0.83;;;0.20;;
71769;SDS011;66386;52.122;5.420;2023-04-03T12:19:27;1.45;;;0.28;;
71769;SDS011;66386;52.122;5.420;2023-04-03T12:22:09;1.10;;;0.10;;
71769;SDS011;66386;52.122;5.420;2023-04-03T12:24:45;0.45;;;0.15;;
71769;SDS011;66386;52.122;5.420;2023-04-03T12:27:23;0.50;;;0.38;;
71769;SDS011;66386;52.122;5.420;2023-04-03T12:29:55;1.13;;;0.20;;
71769;SDS011;66386;52.122;5.420;2023-04-03T12:35:06;0.88;;;0.20;;
71769;SDS011;66386;52.122;5.420;2023-04-03T12:41:27;0.82;;;0.10;;
71769;SDS011;66386;52.122;5.420;2023-04-03T12:46:52;0.70;;;0.20;;
71769;SDS011;66386;52.122;5.420;2023-04-03T12:51:46;1.90;;;0.20;;
71769;SDS011;66386;52.122;5.420;2023-04-03T12:54:14;3.42;;;0.30;;
71769;SDS011;66386;52.122;5.420;2023-04-03T12:56:45;0.27;;;0.17;;
71769;SDS011;66386;52.122;5.420;2023-04-03T12:59:14;1.38;;;0.30;;
71769;SDS011;66386;52.122;5.420;2023-04-03T13:01:43;2.00;;;0.40;;
71769;SDS011;66386;52.122;5.420;2023-04-03T13:04:18;1.10;;;0.20;;
71769;SDS011;66386;52.122;5.420;2023-04-03T13:06:45;1.30;;;0.30;;
71769;SDS011;66386;52.122;5.420;2023-04-03T13:09:19;0.40;;;0.10;;
71769;SDS011;66386;52.122;5.420;2023-04-03T13:11:48;1.80;;;0.30;;
71769;SDS011;66386;52.122;5.420;2023-04-03T13:14:19;0.57;;;0.20;;
71769;SDS011;66386;52.122;5.420;2023-04-03T13:19:25;2.17;;;0.30;;
71769;SDS011;66386;52.122;5.420;2023-04-03T13:21:57;2.63;;;0.27;;
71769;SDS011;66386;52.122;5.420;2023-04-03T13:24:27;1.52;;;0.40;;
71769;SDS011;66386;52.122;5.420;2023-04-03T13:26:56;1.33;;;0.30;;
71769;SDS011;66386;52.122;5.420;2023-04-03T13:29:26;0.70;;;0.20;;
71769;SDS011;66386;52.122;5.420;2023-04-03T13:31:57;2.42;;;0.28;;
71769;SDS011;66386;52.122;5.420;2023-04-03T13:34:27;4.23;;;0.40;;
71769;SDS011;66386;52.122;5.420;2023-04-03T13:36:58;0.90;;;0.30;;
71769;SDS011;66386;52.122;5.420;2023-04-03T13:39:28;1.48;;;0.68;;
71769;SDS011;66386;52.122;5.420;2023-04-03T13:41:57;2.67;;;0.30;;
71769;SDS011;66386;52.122;5.420;2023-04-03T13:44:33;1.25;;;0.20;;
71769;SDS011;66386;52.122;5.420;2023-04-03T13:49:38;1.20;;;0.20;;
71769;SDS011;66386;52.122;5.420;2023-04-03T13:52:24;1.42;;;0.17;;
71769;SDS011;66386;52.122;5.420;2023-04-03T13:55:01;2.35;;;0.20;;
71769;SDS011;66386;52.122;5.420;2023-04-03T13:57:47;1.35;;;0.22;;
71769;SDS011;66386;52.122;5.420;2023-04-03T14:00:45;1.40;;;0.40;;
71769;SDS011;66386;52.122;5.420;2023-04-03T14:03:28;1.02;;;0.28;;
71769;SDS011;66386;52.122;5.420;2023-04-03T14:05:57;1.30;;;0.40;;
71769;SDS011;66386;52.122;5.420;2023-04-03T14:08:24;1.33;;;0.20;;
71769;SDS011;66386;52.122;5.420;2023-04-03T14:11:18;1.23;;;0.35;;
71769;SDS011;66386;52.122;5.420;2023-04-03T14:13:48;1.10;;;0.30;;
71769;SDS011;66386;52.122;5.420;2023-04-03T14:16:21;1.25;;;0.20;;
71769;SDS011;66386;52.122;5.420;2023-04-03T14:18:49;0.50;;;0.20;;
71769;SDS011;66386;52.122;5.420;2023-04-03T14:21:17;1.70;;;0.45;;
71769;SDS011;66386;52.122;5.420;2023-04-03T14:23:46;1.55;;;0.40;;
71769;SDS011;66386;52.122;5.420;2023-04-03T14:26:14;1.80;;;0.50;;
71769;SDS011;66386;52.122;5.420;2023-04-03T14:28:47;1.40;;;0.30;;
71769;SDS011;66386;52.122;5.420;2023-04-03T14:31:18;1.65;;;0.20;;
71769;SDS011;66386;52.122;5.420;2023-04-03T14:33:46;1.58;;;0.20;;
71769;SDS011;66386;52.122;5.420;2023-04-03T14:36:23;2.00;;;0.30;;
71769;SDS011;66386;52.122;5.420;2023-04-03T14:38:52;2.23;;;0.40;;
71769;SDS011;66386;52.122;5.420;2023-04-03T14:41:22;1.75;;;0.40;;
71769;SDS011;66386;52.122;5.420;2023-04-03T14:43:50;2.20;;;0.30;;
71769;SDS011;66386;52.122;5.420;2023-04-03T14:46:26;2.58;;;0.50;;
71769;SDS011;66386;52.122;5.420;2023-04-03T14:49:22;0.73;;;0.20;;
71769;SDS011;66386;52.122;5.420;2023-04-03T14:51:54;3.17;;;0.30;;
71769;SDS011;66386;52.122;5.420;2023-04-03T14:54:22;3.17;;;0.40;;
71769;SDS011;66386;52.122;5.420;2023-04-03T14:56:54;1.50;;;0.30;;
71769;SDS011;66386;52.122;5.420;2023-04-03T14:59:22;3.88;;;0.50;;
71769;SDS011;66386;52.122;5.420;2023-04-03T15:01:49;3.13;;;0.40;;
71769;SDS011;66386;52.122;5.420;2023-04-03T15:04:17;1.83;;;0.40;;
71769;SDS011;66386;52.122;5.420;2023-04-03T15:06:46;2.83;;;1.02;;
71769;SDS011;66386;52.122;5.420;2023-04-03T15:09:24;2.53;;;0.52;;
71769;SDS011;66386;52.122;5.420;2023-04-03T15:11:53;1.55;;;0.40;;
71769;SDS011;66386;52.122;5.420;2023-04-03T15:14:20;2.25;;;0.45;;
71769;SDS011;66386;52.122;5.420;2023-04-03T15:17:03;1.50;;;0.30;;
71769;SDS011;66386;52.122;5.420;2023-04-03T15:19:36;2.30;;;0.30;;
71769;SDS011;66386;52.122;5.420;2023-04-03T15:22:04;2.55;;;0.30;;
71769;SDS011;66386;52.122;5.420;2023-04-03T15:24:31;1.58;;;0.32;;
71769;SDS011;66386;52.122;5.420;2023-04-03T15:26:57;2.20;;;0.40;;
71769;SDS011;66386;52.122;5.420;2023-04-03T15:29:26;0.80;;;0.20;;
71769;SDS011;66386;52.122;5.420;2023-04-03T15:31:53;2.88;;;0.30;;
71769;SDS011;66386;52.122;5.420;2023-04-03T15:34:20;0.90;;;0.32;;
71769;SDS011;66386;52.122;5.420;2023-04-03T15:36:48;2.90;;;0.30;;
71769;SDS011;66386;52.122;5.420;2023-04-03T15:39:15;0.75;;;0.30;;
71769;SDS011;66386;52.122;5.420;2023-04-03T15:41:42;2.50;;;0.50;;
71769;SDS011;66386;52.122;5.420;2023-04-03T15:44:08;1.13;;;0.32;;
71769;SDS011;66386;52.122;5.420;2023-04-03T15:46:35;1.00;;;0.30;;
71769;SDS011;66386;52.122;5.420;2023-04-03T15:49:01;2.00;;;0.50;;
71769;SDS011;66386;52.122;5.420;2023-04-03T15:51:28;2.35;;;0.30;;
71769;SDS011;66386;52.122;5.420;2023-04-03T15:53:54;1.93;;;0.50;;
71769;SDS011;66386;52.122;5.420;2023-04-03T15:56:21;1.42;;;0.40;;
71769;SDS011;66386;52.122;5.420;2023-04-03T15:58:47;2.75;;;0.40;;
71769;SDS011;66386;52.122;5.420;2023-04-03T16:01:14;0.77;;;0.35;;
71769;SDS011;66386;52.122;5.420;2023-04-03T16:03:41;1.80;;;0.40;;
71769;SDS011;66386;52.122;5.420;2023-04-03T16:06:16;2.93;;;0.50;;
71769;SDS011;66386;52.122;5.420;2023-04-03T16:08:45;3.72;;;0.73;;
71769;SDS011;66386;52.122;5.420;2023-04-03T16:11:13;2.15;;;0.50;;
71769;SDS011;66386;52.122;5.420;2023-04-03T16:13:40;2.40;;;0.73;;
71769;SDS011;66386;52.122;5.420;2023-04-03T16:16:07;1.10;;;0.50;;
71769;SDS011;66386;52.122;5.420;2023-04-03T16:18:34;2.13;;;0.53;;
71769;SDS011;66386;52.122;5.420;2023-04-03T16:21:02;1.30;;;0.38;;
71769;SDS011;66386;52.122;5.420;2023-04-03T16:23:28;2.50;;;0.73;;
71769;SDS011;66386;52.122;5.420;2023-04-03T16:25:55;2.47;;;0.38;;
71769;SDS011;66386;52.122;5.420;2023-04-03T16:28:21;1.70;;;0.40;;
71769;SDS011;66386;52.122;5.420;2023-04-03T16:30:48;4.47;;;0.70;;
71769;SDS011;66386;52.122;5.420;2023-04-03T16:33:15;1.25;;;0.30;;
71769;SDS011;66386;52.122;5.420;2023-04-03T16:35:42;1.52;;;0.50;;
71769;SDS011;66386;52.122;5.420;2023-04-03T16:38:09;3.03;;;0.80;;
71769;SDS011;66386;52.122;5.420;2023-04-03T16:40:36;3.50;;;1.02;;
71769;SDS011;66386;52.122;5.420;2023-04-03T16:43:02;1.80;;;0.40;;
71769;SDS011;66386;52.122;5.420;2023-04-03T16:45:29;2.20;;;0.40;;
71769;SDS011;66386;52.122;5.420;2023-04-03T16:47:55;1.70;;;0.30;;